createdAt,value
2018-06-18T09:13:51.796Z,18112.00
2018-06-18T09:14:51.752Z,17888.00
2018-06-18T09:15:51.750Z,17568.00
2018-06-18T09:16:51.724Z,17120.00
2018-06-18T09:17:51.710Z,16832.00
2018-06-18T09:18:51.698Z,16224.00
2018-06-18T09:19:51.682Z,15640.00
2018-06-18T09:20:51.714Z,15312.00
2018-06-18T09:21:51.654Z,15400.00
2018-06-18T09:22:51.643Z,16000.00
2018-06-18T09:23:51.629Z,16608.00
2018-06-18T09:24:51.617Z,17216.00
2018-06-18T09:25:51.613Z,17568.00
2018-06-18T09:26:51.591Z,17760.00
2018-06-18T09:27:51.579Z,18080.00
2018-06-18T09:28:51.568Z,18528.00
2018-06-18T09:29:51.558Z,18656.00
2018-06-18T09:30:51.557Z,18112.00
2018-06-18T09:31:51.531Z,18144.00
2018-06-18T09:32:51.517Z,18368.00
2018-06-18T09:33:51.506Z,18528.00
2018-06-18T09:34:51.495Z,18688.00
2018-06-18T09:35:51.502Z,18944.00
2018-06-18T09:36:51.471Z,19584.00
2018-06-18T09:37:51.460Z,20064.00
2018-06-18T09:38:51.453Z,19712.00
2018-06-18T09:39:51.442Z,19104.00
2018-06-18T09:40:51.428Z,18496.00
2018-06-18T09:41:51.424Z,18432.00
2018-06-18T09:42:51.403Z,17984.00
2018-06-18T09:43:51.391Z,16864.00
2018-06-18T09:44:51.380Z,16276.00
2018-06-18T09:45:51.367Z,15912.00
2018-06-18T09:46:51.368Z,15580.00
2018-06-18T09:47:51.345Z,14864.00
2018-06-18T09:48:51.335Z,14636.00
2018-06-18T09:49:51.320Z,14168.00
2018-06-18T09:50:51.310Z,13484.00
2018-06-18T09:51:51.317Z,13144.00
2018-06-18T09:52:51.290Z,12616.00
2018-06-18T09:53:51.276Z,12732.00
2018-06-18T09:54:51.272Z,13324.00
2018-06-18T09:55:51.260Z,14268.00
2018-06-18T09:56:51.256Z,14944.00
2018-06-18T09:57:51.236Z,16128.00
2018-06-18T09:58:51.222Z,16704.00
2018-06-18T09:59:51.204Z,16608.00
2018-06-18T10:00:51.204Z,17472.00
2018-06-18T10:01:51.202Z,18048.00
2018-06-18T10:02:51.178Z,18080.00
2018-06-18T10:03:51.171Z,17280.00
2018-06-18T10:04:51.153Z,16384.00
2018-06-18T10:05:51.138Z,16212.00
2018-06-18T10:06:51.143Z,16256.00
2018-06-18T10:07:51.119Z,17408.00
2018-06-18T10:08:51.273Z,19360.00
2018-06-18T10:09:51.094Z,21184.00
2018-06-18T10:10:51.080Z,22112.00
2018-06-18T10:11:51.081Z,22880.00
2018-06-18T10:12:51.062Z,23200.00
2018-06-18T10:13:51.048Z,23840.00
2018-06-18T10:14:51.048Z,24064.00
2018-06-18T10:15:51.040Z,24160.00
2018-06-18T10:16:51.029Z,24160.00
2018-06-18T10:17:51.005Z,24608.00
2018-06-18T10:18:50.996Z,24480.00
2018-06-18T10:19:50.989Z,24416.00
2018-06-18T10:20:50.976Z,23744.00
2018-06-18T10:21:50.978Z,22720.00
2018-06-18T10:22:50.952Z,21472.00
2018-06-18T10:23:50.945Z,20544.00
2018-06-18T10:24:50.936Z,19872.00
2018-06-18T10:25:50.925Z,19296.00
2018-06-18T10:26:50.922Z,17728.00
2018-06-18T10:27:50.905Z,16448.00
2018-06-18T10:28:50.897Z,16640.00
2018-06-18T10:29:50.882Z,17248.00
2018-06-18T10:30:50.871Z,17888.00
2018-06-18T10:31:50.878Z,19008.00
2018-06-18T10:32:50.847Z,19328.00
2018-06-18T10:33:50.836Z,18720.00
2018-06-18T10:34:50.827Z,17600.00
2018-06-18T10:35:50.816Z,16928.00
2018-06-18T10:36:50.823Z,15828.00
2018-06-18T10:37:50.793Z,14924.00
2018-06-18T10:38:50.784Z,14060.00
2018-06-18T10:39:50.771Z,12964.00
2018-06-18T10:40:50.762Z,12584.00
2018-06-18T10:41:50.757Z,12532.00
2018-06-18T10:42:50.752Z,12372.00
2018-06-18T10:43:50.731Z,11972.00
2018-06-18T10:44:50.716Z,11724.00
2018-06-18T10:45:50.714Z,11424.00
2018-06-18T10:46:50.695Z,11096.00
2018-06-18T10:47:50.696Z,10944.00
2018-06-18T10:48:50.672Z,10688.00
2018-06-18T10:49:50.664Z,10556.00
2018-06-18T10:50:50.654Z,10468.00
2018-06-18T10:51:50.642Z,10992.00
2018-06-18T10:52:50.641Z,11840.00
2018-06-18T10:53:50.616Z,12624.00
2018-06-18T10:54:50.610Z,12772.00
2018-06-18T10:55:50.591Z,13216.00
2018-06-18T10:56:50.584Z,13376.00
2018-06-18T10:57:50.581Z,13400.00
2018-06-18T10:58:50.559Z,13932.00
2018-06-18T10:59:50.554Z,14788.00
2018-06-18T11:00:50.539Z,15812.00
2018-06-18T11:01:50.530Z,17088.00
2018-06-18T11:02:50.526Z,18784.00
2018-06-18T11:03:50.569Z,21024.00
2018-06-18T11:04:50.489Z,23328.00
2018-06-18T11:05:50.479Z,25504.00
2018-06-18T11:06:50.467Z,26560.00
2018-06-18T11:07:50.469Z,27456.00
2018-06-18T11:08:50.443Z,27168.00
2018-06-18T11:09:50.438Z,26624.00
2018-06-18T11:10:50.421Z,25728.00
2018-06-18T11:11:50.409Z,26144.00
2018-06-18T11:12:50.410Z,26464.00
2018-06-18T11:13:50.388Z,26720.00
2018-06-18T11:14:50.377Z,27296.00
2018-06-18T11:15:50.377Z,27136.00
2018-06-18T11:16:50.594Z,27584.00
2018-06-18T11:17:50.351Z,27872.00
2018-06-18T11:18:50.333Z,27520.00
2018-06-18T11:19:50.326Z,27520.00
2018-06-18T11:20:50.313Z,27872.00
2018-06-18T11:21:50.313Z,28032.00
2018-06-18T11:22:50.335Z,27520.00
2018-06-18T11:23:50.288Z,26048.00
2018-06-18T11:24:50.272Z,24480.00
2018-06-18T11:25:50.262Z,24640.00
2018-06-18T11:26:50.398Z,25280.00
2018-06-18T11:27:50.246Z,25856.00
2018-06-18T11:28:50.247Z,26112.00
2018-06-18T11:29:50.225Z,26784.00
2018-06-18T11:30:50.216Z,27232.00
2018-06-18T11:31:50.204Z,26400.00
2018-06-18T11:32:50.193Z,24576.00
2018-06-18T11:33:50.193Z,22848.00
2018-06-18T11:34:50.201Z,21568.00
2018-06-18T11:35:50.172Z,20896.00
2018-06-18T11:36:50.196Z,20000.00
2018-06-18T11:37:50.201Z,18976.00
2018-06-18T11:38:50.222Z,18336.00
2018-06-18T11:39:50.125Z,18240.00
2018-06-18T11:40:50.113Z,17888.00
2018-06-18T11:41:50.189Z,16992.00
2018-06-18T11:42:50.098Z,15908.00
2018-06-18T11:43:50.105Z,15424.00
2018-06-18T11:44:50.073Z,15432.00
2018-06-18T11:45:50.095Z,15428.00
2018-06-18T11:46:50.057Z,15816.00
2018-06-18T11:47:50.089Z,17024.00
2018-06-18T11:48:50.049Z,17824.00
2018-06-18T11:49:50.029Z,17536.00
2018-06-18T11:50:50.062Z,16800.00
2018-06-18T11:51:50.012Z,16124.00
2018-06-18T11:52:49.994Z,16800.00
2018-06-18T11:53:50.003Z,16212.00
2018-06-18T11:54:49.974Z,14380.00
2018-06-18T11:55:50.023Z,12544.00
2018-06-18T11:56:49.956Z,10936.00
2018-06-18T11:57:49.939Z,9432.00
2018-06-18T11:58:49.948Z,8232.00
2018-06-18T11:59:49.922Z,7496.00
2018-06-18T12:00:49.916Z,7024.00
2018-06-18T12:01:49.901Z,6904.00
2018-06-18T12:02:49.886Z,6836.00
2018-06-18T12:03:49.941Z,6908.00
2018-06-18T12:04:49.867Z,7116.00
2018-06-18T12:05:49.861Z,7452.00
2018-06-18T12:06:49.848Z,7684.00
2018-06-18T12:07:49.834Z,7832.00
2018-06-18T12:08:49.829Z,7808.00
2018-06-18T12:09:49.895Z,7520.00
2018-06-18T12:10:49.801Z,7192.00
2018-06-18T12:11:49.790Z,6840.00
2018-06-18T12:12:49.779Z,6500.00
2018-06-18T12:13:49.771Z,6148.00
2018-06-18T12:14:49.765Z,6032.00
2018-06-18T12:15:49.744Z,5992.00
2018-06-18T12:16:49.736Z,6060.00
2018-06-18T12:17:49.723Z,6236.00
2018-06-18T12:18:49.710Z,6436.00
2018-06-18T12:19:49.711Z,6864.00
2018-06-18T12:20:49.686Z,7604.00
2018-06-18T12:21:49.676Z,8552.00
2018-06-18T12:22:49.662Z,9408.00
2018-06-18T12:23:49.653Z,9652.00
2018-06-18T12:24:49.653Z,9792.00
2018-06-18T12:25:49.628Z,10360.00
2018-06-18T12:26:49.618Z,10808.00
2018-06-18T12:27:49.606Z,11020.00
2018-06-18T12:28:49.592Z,11004.00
2018-06-18T12:29:49.590Z,10648.00
2018-06-18T12:30:49.572Z,10308.00
2018-06-18T12:31:49.558Z,9944.00
2018-06-18T12:32:49.545Z,9088.00
2018-06-18T12:33:49.536Z,7964.00
2018-06-18T12:34:49.535Z,7232.00
2018-06-18T12:35:49.518Z,6756.00
2018-06-18T12:36:49.498Z,6524.00
2018-06-18T12:37:49.486Z,6564.00
2018-06-18T12:38:49.479Z,6668.00
2018-06-18T12:39:49.476Z,6768.00
2018-06-18T12:40:49.451Z,6892.00
2018-06-18T12:41:49.439Z,7052.00
2018-06-18T12:42:49.427Z,7204.00
2018-06-18T12:43:49.416Z,7276.00
2018-06-18T12:44:49.424Z,7496.00
2018-06-18T12:45:49.389Z,8064.00
2018-06-18T12:46:49.437Z,9052.00
2018-06-18T12:47:49.373Z,10416.00
2018-06-18T12:48:49.354Z,11768.00
2018-06-18T12:49:49.360Z,12828.00
2018-06-18T12:50:49.331Z,14200.00
2018-06-18T12:51:49.323Z,16280.00
2018-06-18T12:52:49.306Z,18432.00
2018-06-18T12:53:49.302Z,18880.00
2018-06-18T12:54:49.293Z,16960.00
2018-06-18T12:55:49.270Z,13380.00
2018-06-18T12:56:49.262Z,11444.00
2018-06-18T12:57:49.248Z,9836.00
2018-06-18T12:58:49.237Z,8508.00
2018-06-18T12:59:49.234Z,7520.00
2018-06-18T13:00:49.214Z,7056.00
2018-06-18T13:01:49.204Z,6932.00
2018-06-18T13:02:49.190Z,6896.00
2018-06-18T13:03:49.175Z,7224.00
2018-06-18T13:04:49.180Z,8036.00
2018-06-18T13:05:49.156Z,9116.00
2018-06-18T13:06:49.152Z,10360.00
2018-06-18T13:07:49.132Z,12348.00
2018-06-18T13:08:49.119Z,15108.00
2018-06-18T13:09:49.107Z,17984.00
2018-06-18T13:10:49.107Z,20096.00
2018-06-18T13:11:49.085Z,20352.00
2018-06-18T13:12:49.079Z,18720.00
2018-06-18T13:13:49.063Z,16960.00
2018-06-18T13:14:49.050Z,16136.00
2018-06-18T13:15:49.049Z,15020.00
2018-06-18T13:16:49.026Z,13152.00
2018-06-18T13:17:49.023Z,11392.00
2018-06-18T13:18:49.003Z,10116.00
2018-06-18T13:19:48.993Z,9252.00
2018-06-18T13:20:48.989Z,8368.00
2018-06-18T13:21:48.970Z,7560.00
2018-06-18T13:22:48.958Z,7140.00
2018-06-18T13:23:48.956Z,7056.00
2018-06-18T13:24:48.940Z,7372.00
2018-06-18T13:25:48.933Z,7788.00
2018-06-18T13:26:48.912Z,7544.00
2018-06-18T13:27:48.937Z,6804.00
2018-06-18T13:28:48.889Z,6160.00
2018-06-18T13:29:48.877Z,5816.00
2018-06-18T13:30:48.875Z,5784.00
2018-06-18T13:31:48.866Z,5948.00
2018-06-18T13:32:48.844Z,6152.00
2018-06-18T13:33:48.837Z,6252.00
2018-06-18T13:34:48.817Z,6320.00
2018-06-18T13:35:48.819Z,6828.00
2018-06-18T13:36:48.796Z,7696.00
2018-06-18T13:37:48.797Z,9092.00
2018-06-18T13:38:48.767Z,10364.00
2018-06-18T13:39:48.764Z,10148.00
2018-06-18T13:40:48.759Z,9252.00
2018-06-18T13:41:48.734Z,8704.00
2018-06-18T13:42:48.725Z,8664.00
2018-06-18T13:43:48.711Z,8732.00
2018-06-18T13:44:48.702Z,8948.00
2018-06-18T13:45:48.702Z,8760.00
2018-06-18T13:46:48.673Z,8412.00
2018-06-18T13:47:48.662Z,8384.00
2018-06-18T13:48:48.652Z,8480.00
2018-06-18T13:49:48.643Z,8340.00
2018-06-18T13:50:48.628Z,8032.00
2018-06-18T13:51:48.619Z,7876.00
2018-06-18T13:52:48.759Z,7964.00
2018-06-18T13:53:48.604Z,8284.00
2018-06-18T13:54:48.575Z,8308.00
2018-06-18T13:55:48.565Z,8228.00
2018-06-18T13:56:48.567Z,8224.00
2018-06-18T13:57:48.541Z,8200.00
2018-06-18T13:58:48.527Z,8276.00
2018-06-18T13:59:48.521Z,8300.00
2018-06-18T14:00:48.506Z,8448.00
2018-06-18T14:01:48.490Z,8464.00
2018-06-18T14:02:48.489Z,8396.00
2018-06-18T14:03:48.464Z,8572.00
2018-06-18T14:04:48.452Z,8728.00
2018-06-18T14:05:48.471Z,9036.00
2018-06-18T14:06:48.427Z,9448.00
2018-06-18T14:07:48.426Z,10360.00
2018-06-18T14:08:48.401Z,11384.00
2018-06-18T14:09:48.392Z,12524.00
2018-06-18T14:10:48.379Z,14636.00
2018-06-18T14:11:48.369Z,17984.00
2018-06-18T14:12:48.375Z,22208.00
2018-06-18T14:13:48.411Z,33024.00
2018-06-18T14:14:48.334Z,36960.00
2018-06-18T14:15:48.316Z,31552.00
2018-06-18T14:16:48.308Z,34528.00
2018-06-18T14:17:48.304Z,45696.00
2018-06-18T14:18:48.280Z,50432.00
2018-06-18T14:19:48.351Z,99936.00
2018-06-18T14:20:48.261Z,36832.00
2018-06-18T14:21:48.243Z,26880.00
2018-06-18T14:22:48.231Z,22400.00
2018-06-18T14:23:48.241Z,19520.00
2018-06-18T14:24:48.211Z,18816.00
2018-06-18T14:25:48.200Z,20000.00
2018-06-18T14:26:48.189Z,20960.00
2018-06-18T14:27:48.178Z,19872.00
2018-06-18T14:28:48.176Z,18112.00
2018-06-18T14:29:48.157Z,15552.00
2018-06-18T14:30:48.146Z,13724.00
2018-06-18T14:31:48.135Z,12184.00
2018-06-18T14:32:48.178Z,10692.00
2018-06-18T14:33:48.128Z,9688.00
2018-06-18T14:34:48.102Z,8644.00
2018-06-18T14:35:48.213Z,8236.00
2018-06-18T14:36:48.081Z,8652.00
2018-06-18T14:37:48.073Z,8860.00
2018-06-18T14:38:48.070Z,8720.00
2018-06-18T14:39:48.049Z,8148.00
2018-06-18T14:40:48.036Z,7136.00
2018-06-18T14:41:48.030Z,6988.00
2018-06-18T14:42:48.019Z,7304.00
2018-06-18T14:43:48.016Z,7472.00
2018-06-18T14:44:47.999Z,7724.00
2018-06-18T14:45:48.031Z,7736.00
2018-06-18T14:46:47.969Z,7984.00
2018-06-18T14:47:47.960Z,8356.00
2018-06-18T14:48:48.019Z,8608.00
2018-06-18T14:49:47.935Z,8688.00
2018-06-18T14:50:47.928Z,8464.00
2018-06-18T14:51:47.915Z,7900.00
2018-06-18T14:52:47.902Z,7292.00
2018-06-18T14:53:47.889Z,6676.00
2018-06-18T14:54:47.889Z,6380.00
2018-06-18T14:55:47.867Z,6448.00
2018-06-18T14:56:47.879Z,6916.00
2018-06-18T14:57:47.846Z,7440.00
2018-06-18T14:58:47.832Z,7828.00
2018-06-18T14:59:47.890Z,7928.00
2018-06-18T15:00:47.809Z,7876.00
2018-06-18T15:01:47.797Z,7588.00
2018-06-18T15:02:47.861Z,6780.00
2018-06-18T15:03:47.862Z,5312.00
2018-06-18T15:04:47.775Z,3976.00
2018-06-18T15:05:47.746Z,3900.00
2018-06-18T15:06:47.740Z,4296.00
2018-06-18T15:07:47.727Z,4552.00
2018-06-18T15:08:47.712Z,4948.00
2018-06-18T15:09:47.710Z,5576.00
2018-06-18T15:10:47.697Z,5864.00
2018-06-18T15:11:47.679Z,6188.00
2018-06-18T15:12:47.715Z,7000.00
2018-06-18T15:13:47.690Z,7808.00
2018-06-18T15:14:47.648Z,8588.00
2018-06-18T15:15:47.704Z,8708.00
2018-06-18T15:16:47.618Z,8408.00
2018-06-18T15:17:47.605Z,8448.00
2018-06-18T15:18:47.593Z,8276.00
2018-06-18T15:19:47.594Z,8036.00
2018-06-18T15:20:47.567Z,7956.00
2018-06-18T15:21:47.557Z,8540.00
2018-06-18T15:22:47.552Z,9872.00
2018-06-18T15:23:47.544Z,11352.00
2018-06-18T15:24:47.532Z,12316.00
2018-06-18T15:25:47.509Z,12856.00
2018-06-18T15:26:47.591Z,12984.00
2018-06-18T15:27:47.493Z,12756.00
2018-06-18T15:28:47.473Z,12832.00
2018-06-18T15:29:47.473Z,13012.00
2018-06-18T15:30:47.448Z,13332.00
2018-06-18T15:31:47.441Z,13436.00
2018-06-18T15:32:47.472Z,12656.00
2018-06-18T15:33:47.414Z,12244.00
2018-06-18T15:34:47.416Z,13732.00
2018-06-18T15:35:47.395Z,16568.00
2018-06-18T15:36:47.393Z,17408.00
2018-06-18T15:37:47.370Z,17056.00
2018-06-18T15:38:47.360Z,17216.00
2018-06-18T15:39:47.347Z,19232.00
2018-06-18T15:40:47.339Z,19776.00
2018-06-18T15:41:47.321Z,21344.00
2018-06-18T15:42:47.310Z,20928.00
2018-06-18T15:43:47.378Z,19424.00
2018-06-18T15:44:47.287Z,19744.00
2018-06-18T15:45:47.286Z,19520.00
2018-06-18T15:46:47.270Z,18336.00
2018-06-18T15:47:47.254Z,18336.00
2018-06-18T15:48:47.242Z,18592.00
2018-06-18T15:49:47.231Z,17184.00
2018-06-18T15:50:47.231Z,17728.00
2018-06-18T15:51:47.212Z,19872.00
2018-06-18T15:52:47.198Z,21280.00
2018-06-18T15:53:47.188Z,22592.00
2018-06-18T15:54:47.181Z,21888.00
2018-06-18T15:55:47.177Z,22720.00
2018-06-18T15:56:47.176Z,45888.00
2018-06-18T15:57:47.148Z,31168.00
2018-06-18T15:58:47.134Z,50272.00
2018-06-18T15:59:47.129Z,71840.00
2018-06-18T16:00:47.123Z,48448.00
2018-06-18T16:01:47.126Z,46720.00
2018-06-18T16:02:47.093Z,40992.00
2018-06-18T16:03:47.085Z,28608.00
2018-06-18T16:04:47.075Z,27456.00
2018-06-18T16:05:47.079Z,78528.00
2018-06-18T16:06:47.056Z,89696.00
2018-06-18T16:07:47.048Z,31488.00
2018-06-18T16:08:47.042Z,57952.00
2018-06-18T16:09:47.035Z,65856.00
2018-06-18T16:10:47.042Z,68608.00
2018-06-18T16:11:47.015Z,38464.00
2018-06-18T16:12:47.009Z,28320.00
2018-06-18T16:13:46.999Z,73088.00
2018-06-18T16:14:46.993Z,32064.00
2018-06-18T16:15:47.001Z,23264.00
2018-06-18T16:16:46.978Z,32512.00
2018-06-18T16:17:47.036Z,30624.00
2018-06-18T16:18:46.962Z,32608.00
2018-06-18T16:19:46.966Z,33600.00
2018-06-18T16:20:46.963Z,72512.00
2018-06-18T16:21:46.943Z,50944.00
2018-06-18T16:22:46.937Z,36000.00
2018-06-18T16:23:46.938Z,42464.00
2018-06-18T16:24:46.922Z,35264.00
2018-06-18T16:25:46.933Z,66688.00
2018-06-18T16:26:46.910Z,62656.00
2018-06-18T16:27:46.901Z,28320.00
2018-06-18T16:28:46.897Z,59200.00
2018-06-18T16:29:46.888Z,32768.00
2018-06-18T16:30:46.896Z,27360.00
2018-06-18T16:31:46.895Z,24448.00
2018-06-18T16:32:46.874Z,23808.00
2018-06-18T16:33:46.923Z,30816.00
2018-06-18T16:34:46.858Z,68320.00
2018-06-18T16:35:46.854Z,27840.00
2018-06-18T16:36:46.881Z,22112.00
2018-06-18T16:37:46.851Z,20736.00
2018-06-18T16:38:46.833Z,19872.00
2018-06-18T16:39:46.856Z,20000.00
2018-06-18T16:40:46.844Z,19680.00
2018-06-18T16:41:46.834Z,23072.00
2018-06-18T16:42:46.806Z,22048.00
2018-06-18T16:43:46.796Z,24992.00
2018-06-18T16:44:46.788Z,22272.00
2018-06-18T16:45:46.782Z,21312.00
2018-06-18T16:46:46.773Z,22432.00
2018-06-18T16:47:46.785Z,25696.00
2018-06-18T16:48:46.759Z,30400.00
2018-06-18T16:49:46.750Z,35680.00
2018-06-18T16:50:46.743Z,25056.00
2018-06-18T16:51:46.748Z,23840.00
2018-06-18T16:52:46.726Z,23168.00
2018-06-18T16:53:46.719Z,23136.00
2018-06-18T16:54:46.720Z,54144.00
2018-06-18T16:55:46.704Z,53056.00
2018-06-18T16:56:46.692Z,21600.00
2018-06-18T16:57:46.698Z,20864.00
2018-06-18T16:58:46.679Z,20256.00
2018-06-18T16:59:46.672Z,20320.00
2018-06-18T17:00:46.668Z,18912.00
2018-06-18T17:01:46.649Z,21120.00
2018-06-18T17:02:46.681Z,19968.00
2018-06-18T17:03:46.634Z,19712.00
2018-06-18T17:04:46.630Z,18848.00
2018-06-18T17:05:46.621Z,19552.00
2018-06-18T17:06:46.609Z,44576.00
2018-06-18T17:07:46.615Z,20704.00
2018-06-18T17:08:46.595Z,19200.00
2018-06-18T17:09:46.581Z,15672.00
2018-06-18T17:10:46.579Z,13428.00
2018-06-18T17:11:46.575Z,25312.00
2018-06-18T17:12:46.571Z,41216.00
2018-06-18T17:13:46.554Z,16192.00
2018-06-18T17:14:46.545Z,46528.00
2018-06-18T17:15:46.535Z,44640.00
2018-06-18T17:16:46.526Z,44480.00
2018-06-18T17:17:46.535Z,48832.00
2018-06-18T17:18:46.511Z,52096.00
2018-06-18T17:19:46.512Z,51840.00
2018-06-18T17:20:46.503Z,46304.00
2018-06-18T17:21:46.493Z,42368.00
2018-06-18T17:22:46.497Z,42016.00
2018-06-18T17:23:46.476Z,26272.00
2018-06-18T17:24:46.476Z,20032.00
2018-06-18T17:25:46.466Z,42176.00
2018-06-18T17:26:46.454Z,40480.00
2018-06-18T17:27:46.477Z,42208.00
2018-06-18T17:28:46.532Z,43616.00
2018-06-18T17:29:46.446Z,46368.00
2018-06-18T17:30:46.440Z,20576.00
2018-06-18T17:31:46.478Z,33888.00
2018-06-18T17:32:46.453Z,17120.00
2018-06-18T17:33:46.447Z,16064.00
2018-06-18T17:34:46.422Z,15440.00
2018-06-18T17:35:46.418Z,23968.00
2018-06-18T17:36:46.413Z,42048.00
2018-06-18T17:37:46.436Z,15116.00
2018-06-18T17:38:46.403Z,13344.00
2018-06-18T17:39:46.398Z,11116.00
2018-06-18T17:40:46.391Z,10048.00
2018-06-18T17:41:46.399Z,9332.00
2018-06-18T17:42:46.392Z,8836.00
2018-06-18T17:43:46.375Z,8200.00
2018-06-18T17:44:46.373Z,7996.00
2018-06-18T17:45:46.359Z,8624.00
2018-06-18T17:46:46.352Z,10208.00
2018-06-18T17:47:46.363Z,12744.00
2018-06-18T17:48:46.341Z,16800.00
2018-06-18T17:49:46.380Z,11956.00
2018-06-18T17:50:46.325Z,11672.00
2018-06-18T17:51:46.315Z,11132.00
2018-06-18T17:52:46.327Z,11084.00
2018-06-18T17:53:46.340Z,11000.00
2018-06-18T17:54:46.295Z,11288.00
2018-06-18T17:55:46.284Z,12636.00
2018-06-18T17:56:46.273Z,11420.00
2018-06-18T17:57:46.277Z,10868.00
2018-06-18T17:58:46.255Z,10104.00
2018-06-18T17:59:46.247Z,9084.00
2018-06-18T18:00:46.238Z,8204.00
2018-06-18T18:01:46.230Z,7704.00
2018-06-18T18:02:46.253Z,8460.00
2018-06-18T18:03:46.210Z,8152.00
2018-06-18T18:04:46.200Z,11228.00
2018-06-18T18:05:46.201Z,8776.00
2018-06-18T18:06:46.180Z,10564.00
2018-06-18T18:07:46.196Z,8740.00
2018-06-18T18:08:46.164Z,8660.00
2018-06-18T18:09:46.152Z,8868.00
2018-06-18T18:10:46.145Z,9204.00
2018-06-18T18:11:46.135Z,9716.00
2018-06-18T18:12:46.194Z,7516.00
2018-06-18T18:13:46.159Z,7312.00
2018-06-18T18:14:46.104Z,7796.00
2018-06-18T18:15:46.092Z,7860.00
2018-06-18T18:16:46.083Z,6856.00
2018-06-18T18:17:46.087Z,5968.00
2018-06-18T18:18:46.066Z,5024.00
2018-06-18T18:19:46.057Z,4380.00
2018-06-18T18:20:46.038Z,4172.00
2018-06-18T18:21:46.031Z,4092.00
2018-06-18T18:22:46.034Z,4096.00
2018-06-18T18:23:46.009Z,4432.00
2018-06-18T18:24:45.993Z,4788.00
2018-06-18T18:25:45.986Z,4680.00
2018-06-18T18:26:45.977Z,4248.00
2018-06-18T18:27:46.106Z,3788.00
2018-06-18T18:28:45.976Z,3560.00
2018-06-18T18:29:45.967Z,3544.00
2018-06-18T18:30:45.937Z,3456.00
2018-06-18T18:31:45.926Z,3484.00
2018-06-18T18:32:45.924Z,3476.00
2018-06-18T18:33:45.914Z,3388.00
2018-06-18T18:34:45.899Z,3172.00
2018-06-18T18:35:45.876Z,2776.00
2018-06-18T18:36:45.863Z,2416.00
2018-06-18T18:37:45.864Z,2004.00
2018-06-18T18:38:45.840Z,1696.00
2018-06-18T18:39:45.829Z,1616.00
2018-06-18T18:40:45.819Z,1212.00
2018-06-18T18:41:45.811Z,1056.00
2018-06-18T18:42:45.806Z,1080.00
2018-06-18T18:43:45.786Z,1532.00
2018-06-18T18:44:45.772Z,1688.00
2018-06-18T18:45:45.764Z,1892.00
2018-06-18T18:46:45.752Z,1972.00
2018-06-18T18:47:45.750Z,1884.00
2018-06-18T18:48:45.728Z,1668.00
2018-06-18T18:49:45.716Z,1616.00
2018-06-18T18:50:45.700Z,1616.00
2018-06-18T18:51:45.697Z,1528.00
2018-06-18T18:52:45.695Z,1372.00
2018-06-18T18:53:45.675Z,1220.00
2018-06-18T18:54:45.652Z,1120.00
2018-06-18T18:55:45.637Z,1076.00
2018-06-18T18:56:45.633Z,1084.00
2018-06-18T18:57:45.632Z,1088.00
2018-06-18T18:58:45.610Z,1016.00
2018-06-18T18:59:45.591Z,1016.00
2018-06-18T19:00:45.580Z,1000.00
2018-06-18T19:01:45.568Z,988.00
2018-06-18T19:02:45.557Z,1000.00
2018-06-18T19:03:45.566Z,1008.00
2018-06-18T19:04:45.536Z,920.00
2018-06-18T19:05:45.519Z,852.00
2018-06-18T19:06:45.504Z,928.00
2018-06-18T19:07:45.497Z,1044.00
2018-06-18T19:08:45.482Z,1208.00
2018-06-18T19:09:45.538Z,1440.00
2018-06-18T19:10:45.458Z,1700.00
2018-06-18T19:11:45.458Z,1692.00
2018-06-18T19:12:45.432Z,1612.00
2018-06-18T19:13:45.421Z,1520.00
2018-06-18T19:14:45.422Z,1356.00
2018-06-18T19:15:45.398Z,1212.00
2018-06-18T19:16:45.394Z,1124.00
2018-06-18T19:17:45.383Z,1048.00
2018-06-18T19:18:45.364Z,1004.00
2018-06-18T19:19:45.360Z,964.00
2018-06-18T19:20:45.335Z,856.00
2018-06-18T19:21:45.368Z,792.00
2018-06-18T19:22:45.327Z,700.00
2018-06-18T19:23:45.303Z,596.00
2018-06-18T19:24:45.294Z,548.00
2018-06-18T19:25:45.283Z,484.00
2018-06-18T19:26:45.258Z,396.00
2018-06-18T19:27:45.256Z,336.00
2018-06-18T19:28:45.235Z,288.00
2018-06-18T19:29:45.249Z,256.00
2018-06-18T19:30:45.225Z,244.00
2018-06-18T19:31:45.200Z,216.00
2018-06-18T19:32:45.191Z,180.00
2018-06-18T19:33:45.180Z,144.00
2018-06-18T19:34:45.176Z,128.00
2018-06-18T19:35:45.147Z,132.00
2018-06-18T19:36:45.248Z,144.00
2018-06-18T19:37:45.122Z,172.00
2018-06-18T19:38:45.109Z,204.00
2018-06-18T19:39:45.113Z,216.00
2018-06-18T19:40:45.084Z,220.00
2018-06-18T19:41:45.068Z,224.00
2018-06-18T19:42:45.062Z,232.00
2018-06-18T19:43:45.046Z,232.00
2018-06-18T19:44:45.046Z,236.00
2018-06-18T19:45:45.023Z,236.00
2018-06-18T19:46:45.004Z,240.00
2018-06-18T19:47:44.993Z,228.00
2018-06-18T19:48:44.980Z,216.00
2018-06-18T19:49:44.986Z,204.00
2018-06-18T19:50:45.007Z,188.00
2018-06-18T19:51:44.943Z,172.00
2018-06-18T19:52:44.931Z,152.00
2018-06-18T19:53:44.914Z,136.00
2018-06-18T19:54:44.906Z,128.00
2018-06-18T19:55:44.903Z,116.00
2018-06-18T19:56:44.881Z,108.00
2018-06-18T19:57:44.866Z,100.00
2018-06-18T19:58:44.851Z,92.00
2018-06-18T19:59:44.840Z,84.00
2018-06-18T20:00:44.836Z,72.00
2018-06-18T20:01:44.883Z,64.00
2018-06-18T20:02:44.802Z,64.00
2018-06-18T20:03:44.787Z,56.00
2018-06-18T20:04:44.784Z,48.00
2018-06-18T20:05:44.785Z,44.00
2018-06-18T20:06:44.748Z,32.00
2018-06-18T20:07:44.742Z,32.00
2018-06-18T20:08:44.730Z,24.00
2018-06-18T20:09:44.706Z,24.00
2018-06-18T20:10:44.704Z,20.00
2018-06-18T20:11:44.684Z,16.00
2018-06-18T20:12:44.672Z,20.00
2018-06-18T20:13:44.654Z,12.00
2018-06-18T20:14:44.641Z,12.00
2018-06-18T20:15:44.637Z,12.00
2018-06-18T20:16:44.623Z,8.00
2018-06-18T20:17:44.615Z,8.00
2018-06-18T20:18:44.588Z,4.00
2018-06-18T20:19:44.578Z,8.00
2018-06-18T20:20:44.570Z,8.00
2018-06-18T20:21:44.551Z,4.00
2018-06-18T20:22:44.533Z,4.00
2018-06-18T20:23:44.521Z,4.00
2018-06-18T20:24:44.511Z,4.00
2018-06-18T20:25:44.580Z,4.00
2018-06-18T20:26:44.481Z,4.00
2018-06-18T20:27:44.493Z,4.00
2018-06-18T20:28:44.451Z,4.00
2018-06-18T20:29:44.448Z,0.00
2018-06-18T20:30:44.439Z,4.00
2018-06-18T20:31:44.412Z,4.00
2018-06-18T20:32:44.404Z,0.00
2018-06-18T20:33:44.385Z,0.00
2018-06-18T20:34:44.374Z,0.00
2018-06-18T20:35:44.372Z,0.00
2018-06-18T20:36:44.348Z,0.00
2018-06-18T20:37:44.362Z,0.00
2018-06-18T20:38:44.318Z,0.00
2018-06-18T20:39:44.305Z,0.00
2018-06-18T20:40:44.312Z,0.00
2018-06-18T20:41:44.283Z,0.00
2018-06-18T20:42:44.266Z,0.00
2018-06-18T20:43:44.254Z,0.00
2018-06-18T20:44:44.237Z,0.00
2018-06-18T20:45:44.234Z,0.00
2018-06-18T20:46:44.211Z,0.00
2018-06-18T20:47:44.197Z,0.00
2018-06-18T20:48:44.181Z,0.00
2018-06-18T20:49:44.179Z,0.00
2018-06-18T20:50:44.232Z,0.00
2018-06-18T20:51:44.142Z,0.00
2018-06-18T20:52:44.128Z,0.00
2018-06-18T20:53:44.119Z,0.00
2018-06-18T20:54:44.102Z,0.00
2018-06-18T20:55:44.655Z,0.00
2018-06-18T20:56:44.075Z,0.00
2018-06-18T20:57:44.069Z,0.00
2018-06-18T20:58:44.049Z,0.00
2018-06-18T20:59:44.034Z,0.00
2018-06-18T21:00:44.034Z,0.00
2018-06-18T21:01:44.012Z,0.00
2018-06-18T21:02:44.069Z,0.00
2018-06-18T21:03:43.992Z,0.00
2018-06-18T21:04:43.965Z,0.00
2018-06-18T21:05:43.965Z,0.00
2018-06-18T21:06:43.961Z,0.00
2018-06-18T21:07:43.979Z,0.00
2018-06-18T21:08:43.914Z,0.00
2018-06-18T21:09:43.898Z,0.00
2018-06-18T21:10:43.901Z,0.00
2018-06-18T21:11:43.869Z,0.00
2018-06-18T21:12:43.855Z,0.00
2018-06-18T21:13:43.845Z,0.00
2018-06-18T21:14:43.830Z,0.00
2018-06-18T21:15:43.826Z,0.00